Time;durP1;ratioP1;P1;durP2;ratioP2;P2;SDS_P1;SDS_P2;PMS_P1;PMS_P2;Temp;Humidity;BMP_temperature;BMP_pressure;BME280_temperature;BME280_humidity;BME280_pressure;Samples;Min_cycle;Max_cycle;Signal;HPM_P1;HPM_P2
2021/06/28 00:00:44;;;;;;;10.03;7.57;;;20.50;1.00;;;;;;6107305;23;20221;-73
2021/06/28 00:03:10;;;;;;;7.40;6.70;;;20.50;1.00;;;;;;6109077;23;20250;-69
2021/06/28 00:05:36;;;;;;;7.63;6.83;;;20.60;1.00;;;;;;6099449;23;20519;-69
2021/06/28 00:08:02;;;;;;;8.47;7.57;;;20.60;1.00;;;;;;6108809;23;20853;-69
2021/06/28 00:10:30;;;;;;;8.90;7.80;;;20.30;1.00;;;;;;6108646;23;20719;-69
2021/06/28 00:12:59;;;;;;;8.00;7.30;;;20.30;95.50;;;;;;6109074;23;20862;-68
2021/06/28 00:15:28;;;;;;;8.60;7.80;;;20.30;99.90;;;;;;6122633;23;20859;-67
2021/06/28 00:17:55;;;;;;;8.40;7.60;;;20.10;99.90;;;;;;6108796;23;20702;-68
2021/06/28 00:20:20;;;;;;;8.23;7.33;;;20.00;99.90;;;;;;6108510;23;20471;-68
2021/06/28 00:22:48;;;;;;;10.67;9.20;;;20.10;99.90;;;;;;6108888;23;20759;-68
2021/06/28 00:25:17;;;;;;;9.07;8.17;;;20.20;99.90;;;;;;6122063;23;20594;-66
2021/06/28 00:27:44;;;;;;;10.03;7.90;;;20.20;99.90;;;;;;6108749;23;20478;-68
2021/06/28 00:30:15;;;;;;;9.00;8.10;;;20.30;99.90;;;;;;6108706;23;20423;-68
2021/06/28 00:32:41;;;;;;;8.97;8.03;;;20.10;99.90;;;;;;6098806;23;20830;-69
2021/06/28 00:35:08;;;;;;;8.90;7.73;;;20.10;99.90;;;;;;6122048;23;20399;-68
2021/06/28 00:37:35;;;;;;;8.43;7.53;;;20.10;99.90;;;;;;6099029;23;20400;-68
2021/06/28 00:40:01;;;;;;;8.20;7.43;;;20.10;99.90;;;;;;6108457;23;20739;-68
2021/06/28 00:42:26;;;;;;;8.80;7.90;;;20.10;99.90;;;;;;6108481;23;20402;-69
2021/06/28 00:44:52;;;;;;;9.80;8.30;;;19.90;99.90;;;;;;6108814;23;20199;-69
2021/06/28 00:47:19;;;;;;;8.33;7.17;;;19.80;99.90;;;;;;6107271;23;20160;-69
2021/06/28 00:49:46;;;;;;;9.20;8.30;;;19.90;99.90;;;;;;6108134;23;20400;-69
2021/06/28 00:52:11;;;;;;;8.60;7.80;;;19.80;99.90;;;;;;6108440;23;20693;-69
2021/06/28 00:54:38;;;;;;;9.30;8.30;;;19.80;99.90;;;;;;6108390;23;20414;-68
2021/06/28 00:57:04;;;;;;;8.73;7.83;;;19.80;99.90;;;;;;6108488;23;20388;-68
2021/06/28 00:59:32;;;;;;;9.60;8.60;;;19.70;99.90;;;;;;6108467;23;20467;-68
2021/06/28 01:01:59;;;;;;;9.27;8.10;;;19.80;99.90;;;;;;6111532;23;20395;-70
2021/06/28 01:04:26;;;;;;;10.10;8.47;;;19.90;99.90;;;;;;6121690;23;20407;-68
2021/06/28 01:06:52;;;;;;;9.40;8.50;;;19.90;99.90;;;;;;6108214;23;20391;-68
2021/06/28 01:09:17;;;;;;;8.70;7.70;;;19.90;99.90;;;;;;6108267;23;20384;-68
2021/06/28 01:11:43;;;;;;;9.80;8.90;;;19.70;99.90;;;;;;6108556;23;20180;-67
2021/06/28 01:14:09;;;;;;;9.27;8.13;;;19.80;99.90;;;;;;6108290;23;20218;-67
2021/06/28 01:16:35;;;;;;;9.90;8.90;;;19.80;99.90;;;;;;6108283;23;20449;-67
2021/06/28 01:19:01;;;;;;;10.10;9.10;;;19.90;99.90;;;;;;6108253;23;20167;-67
2021/06/28 01:21:28;;;;;;;10.73;8.53;;;19.80;99.90;;;;;;6108299;23;20410;-67
2021/06/28 01:23:55;;;;;;;9.73;8.73;;;19.70;99.90;;;;;;6121826;23;20524;-67
2021/06/28 01:26:21;;;;;;;9.40;8.47;;;19.40;99.90;;;;;;6121630;23;20866;-67
2021/06/28 01:28:46;;;;;;;9.83;8.83;;;19.20;99.90;;;;;;6106866;23;20407;-67
2021/06/28 01:31:12;;;;;;;9.17;8.33;;;19.10;99.90;;;;;;6108218;23;20481;-67
2021/06/28 01:33:39;;;;;;;10.57;9.23;;;19.20;99.90;;;;;;6108354;23;20155;-67
2021/06/28 01:36:05;;;;;;;9.80;8.80;;;19.50;99.90;;;;;;6108301;23;20162;-67
2021/06/28 01:38:32;;;;;;;11.33;9.00;;;19.30;99.90;;;;;;6108001;23;20813;-67
2021/06/28 01:40:57;;;;;;;10.43;9.33;;;19.30;99.90;;;;;;6098417;23;20399;-67
2021/06/28 01:43:24;;;;;;;9.17;8.27;;;18.90;99.90;;;;;;6098740;23;20395;-67
2021/06/28 01:45:53;;;;;;;10.80;9.07;;;18.90;99.90;;;;;;6108089;23;20155;-68
2021/06/28 01:48:19;;;;;;;10.77;9.20;;;19.10;99.90;;;;;;6107713;23;20684;-67
2021/06/28 01:50:46;;;;;;;11.37;8.83;;;19.30;99.90;;;;;;6108090;23;20427;-67
2021/06/28 01:53:13;;;;;;;9.93;8.93;;;19.40;99.90;;;;;;6108096;23;20671;-67
2021/06/28 01:55:39;;;;;;;10.33;9.27;;;19.10;99.90;;;;;;6108080;23;20818;-67
2021/06/28 01:58:07;;;;;;;10.33;9.17;;;19.00;99.90;;;;;;6107910;23;20424;-67
2021/06/28 02:00:38;;;;;;;9.93;8.93;;;19.00;99.90;;;;;;6098653;23;20404;-67
2021/06/28 02:03:16;;;;;;;10.20;8.87;;;19.20;99.90;;;;;;6097988;23;20422;-67
2021/06/28 02:05:50;;;;;;;10.27;9.17;;;19.10;99.90;;;;;;6098652;23;20384;-67
2021/06/28 02:08:19;;;;;;;11.40;8.97;;;19.00;99.90;;;;;;6107521;23;20383;-67
2021/06/28 02:10:49;;;;;;;11.73;9.63;;;19.00;99.90;;;;;;6107974;23;20438;-67
2021/06/28 02:13:16;;;;;;;11.07;9.83;;;19.10;99.90;;;;;;6107841;23;20392;-67
2021/06/28 02:15:41;;;;;;;12.13;10.30;;;18.80;99.90;;;;;;6107894;23;20399;-69
2021/06/28 02:18:07;;;;;;;10.50;9.47;;;19.00;99.90;;;;;;6107489;23;20388;-68
2021/06/28 02:20:33;;;;;;;12.93;10.33;;;18.80;99.90;;;;;;6098331;23;20258;-67
2021/06/28 02:23:16;;;;;;;9.67;8.67;;;18.70;99.90;;;;;;6107776;23;20156;-67
2021/06/28 02:25:42;;;;;;;12.70;10.67;;;18.90;99.90;;;;;;6120625;23;20186;-67
2021/06/28 02:28:08;;;;;;;12.40;9.90;;;18.90;99.90;;;;;;6107432;23;20716;-67
2021/06/28 02:30:33;;;;;;;10.87;9.77;;;19.00;99.90;;;;;;6107827;23;20198;-67
2021/06/28 02:32:59;;;;;;;9.80;8.80;;;19.00;99.90;;;;;;6098297;23;20163;-67
2021/06/28 02:35:24;;;;;;;10.43;9.33;;;19.00;99.90;;;;;;6107715;23;20571;-67
2021/06/28 02:37:50;;;;;;;11.07;9.97;;;18.80;99.90;;;;;;6120964;23;20167;-67
2021/06/28 02:40:16;;;;;;;14.37;10.63;;;18.70;99.90;;;;;;6120962;23;20159;-67
2021/06/28 02:42:41;;;;;;;13.13;9.60;;;18.70;99.90;;;;;;6107710;23;20311;-67
2021/06/28 02:45:09;;;;;;;13.00;10.00;;;18.60;99.90;;;;;;6098142;23;20163;-67
2021/06/28 02:47:35;;;;;;;11.40;10.20;;;18.50;99.90;;;;;;6107330;23;20545;-67
2021/06/28 02:50:07;;;;;;;11.20;9.50;;;18.50;99.90;;;;;;6107320;23;20522;-67
2021/06/28 02:52:33;;;;;;;11.00;9.93;;;18.40;99.90;;;;;;6107612;23;20395;-67
2021/06/28 02:54:58;;;;;;;14.43;11.47;;;18.60;99.90;;;;;;6098392;23;20397;-67
2021/06/28 02:57:24;;;;;;;12.23;10.30;;;18.70;99.90;;;;;;6107387;23;20187;-67
2021/06/28 02:59:49;;;;;;;11.60;10.07;;;18.80;99.90;;;;;;6107452;23;20243;-67
2021/06/28 03:02:16;;;;;;;11.30;9.73;;;18.80;99.90;;;;;;6107466;23;20630;-67
2021/06/28 03:04:41;;;;;;;12.10;10.07;;;18.90;99.90;;;;;;6121064;23;20164;-67
2021/06/28 03:07:07;;;;;;;13.40;10.97;;;18.90;99.90;;;;;;6107313;23;20690;-67
2021/06/28 03:09:32;;;;;;;13.53;10.10;;;18.80;99.90;;;;;;6120768;23;20160;-67
2021/06/28 03:11:58;;;;;;;12.50;10.63;;;18.90;99.90;;;;;;6120936;23;20619;-70
2021/06/28 03:14:23;;;;;;;11.50;10.00;;;19.10;99.90;;;;;;6107392;23;20241;-69
2021/06/28 03:16:49;;;;;;;13.50;11.70;;;19.00;99.90;;;;;;6107558;23;20151;-70
2021/06/28 03:19:15;;;;;;;12.50;10.53;;;19.20;99.90;;;;;;6107129;23;20155;-69
2021/06/28 03:21:40;;;;;;;11.90;10.70;;;19.10;99.90;;;;;;6107098;23;20234;-69
2021/06/28 03:24:06;;;;;;;11.53;10.33;;;18.80;99.90;;;;;;6106774;23;20183;-70
2021/06/28 03:26:32;;;;;;;12.27;10.80;;;18.90;99.90;;;;;;6107717;23;20167;-70
2021/06/28 03:28:57;;;;;;;11.80;10.07;;;19.00;99.90;;;;;;6096056;23;20259;-69
2021/06/28 03:31:23;;;;;;;12.20;10.90;;;19.20;99.90;;;;;;6107589;23;20187;-69
2021/06/28 03:33:49;;;;;;;14.33;10.80;;;19.20;99.90;;;;;;6107763;23;20181;-68
2021/06/28 03:36:14;;;;;;;11.43;10.17;;;19.20;99.90;;;;;;6121646;23;20215;-68
2021/06/28 03:38:40;;;;;;;12.50;10.13;;;19.20;99.90;;;;;;6100167;23;20591;-69
2021/06/28 03:41:05;;;;;;;11.53;10.17;;;19.40;99.90;;;;;;6098939;23;20163;-69
2021/06/28 03:43:31;;;;;;;12.13;9.90;;;19.50;99.90;;;;;;6123325;23;20183;-69
2021/06/28 03:45:56;;;;;;;11.10;10.03;;;19.60;99.90;;;;;;6109376;23;20167;-69
2021/06/28 03:48:22;;;;;;;10.90;9.80;;;19.70;99.90;;;;;;6109504;23;20164;-67
2021/06/28 03:50:48;;;;;;;12.47;11.17;;;19.80;99.90;;;;;;6109886;23;20249;-67
2021/06/28 03:53:14;;;;;;;12.20;10.00;;;19.70;99.90;;;;;;6109839;23;20446;-67
2021/06/28 03:55:40;;;;;;;11.73;10.53;;;19.50;99.90;;;;;;6100584;23;20491;-67
2021/06/28 03:58:05;;;;;;;12.43;10.90;;;19.50;99.90;;;;;;6109714;23;20835;-67
2021/06/28 04:00:31;;;;;;;11.50;9.77;;;19.60;99.90;;;;;;6098956;23;20171;-67
2021/06/28 04:03:01;;;;;;;11.17;9.73;;;20.00;99.90;;;;;;6100368;23;20198;-67
2021/06/28 04:05:27;;;;;;;13.30;10.17;;;20.90;99.90;;;;;;6100046;23;20174;-67
2021/06/28 04:07:53;;;;;;;10.50;8.60;;;22.50;1.00;;;;;;6100545;23;20427;-67
2021/06/28 04:10:20;;;;;;;9.97;9.00;;;24.00;1.00;;;;;;6109339;23;20187;-67
2021/06/28 04:12:48;;;;;;;8.83;7.80;;;25.00;1.00;;;;;;6100153;23;20406;-67
2021/06/28 04:15:15;;;;;;;9.37;8.37;;;25.90;5.70;;;;;;6109781;23;20387;-67
2021/06/28 04:17:43;;;;;;;8.43;7.63;;;26.30;99.90;;;;;;6100364;23;20452;-67
2021/06/28 04:20:10;;;;;;;8.03;7.23;;;26.00;99.90;;;;;;6099790;23;20402;-67
2021/06/28 04:22:37;;;;;;;10.97;9.70;;;26.90;1.00;;;;;;6109219;23;20701;-67
2021/06/28 04:25:05;;;;;;;9.20;8.30;;;26.80;99.90;;;;;;6109186;23;20422;-67
2021/06/28 04:27:31;;;;;;;10.33;7.70;;;26.50;99.90;;;;;;6108751;23;20729;-67
2021/06/28 04:29:57;;;;;;;8.40;7.60;;;26.30;1.00;;;;;;6108648;23;20398;-67
2021/06/28 04:32:22;;;;;;;8.83;7.93;;;25.80;99.90;;;;;;6109179;23;20391;-67
2021/06/28 04:34:48;;;;;;;9.03;7.40;;;26.40;1.00;;;;;;6109092;23;20198;-67
2021/06/28 04:37:13;;;;;;;9.00;8.20;;;27.30;99.90;;;;;;6108573;23;20156;-67
2021/06/28 04:39:39;;;;;;;7.27;6.57;;;27.70;99.90;;;;;;6108575;23;20156;-67
2021/06/28 04:42:06;;;;;;;7.73;7.03;;;27.40;99.90;;;;;;6109310;23;20174;-67
2021/06/28 04:44:31;;;;;;;9.23;8.27;;;28.60;1.00;;;;;;6109477;23;20462;-67
2021/06/28 04:46:57;;;;;;;8.33;7.53;;;28.70;1.00;;;;;;6109042;23;20479;-67
2021/06/28 04:49:22;;;;;;;8.73;7.93;;;27.30;99.90;;;;;;6121932;23;20210;-68
2021/06/28 04:51:48;;;;;;;8.40;7.50;;;27.20;99.90;;;;;;6122228;23;20249;-69
2021/06/28 04:54:14;;;;;;;9.60;8.03;;;27.80;62.30;;;;;;6109300;23;20152;-69
2021/06/28 04:56:39;;;;;;;7.70;7.00;;;27.70;43.00;;;;;;6122363;23;20258;-69
2021/06/28 04:59:07;;;;;;;9.43;7.43;;;28.20;1.00;;;;;;6109137;23;20190;-70
2021/06/28 05:01:33;;;;;;;8.80;7.90;;;27.50;99.90;;;;;;6110167;23;20568;-67
2021/06/28 05:03:59;;;;;;;9.53;7.90;;;28.20;14.70;;;;;;6107722;23;20396;-68
2021/06/28 05:06:24;;;;;;;9.07;7.87;;;28.40;1.00;;;;;;6108754;23;20159;-71
2021/06/28 05:08:50;;;;;;;10.20;8.70;;;28.50;1.00;;;;;;6108521;23;20156;-68
2021/06/28 05:11:15;;;;;;;10.70;7.17;;;28.50;1.00;;;;;;6108364;23;20486;-68
2021/06/28 05:13:41;;;;;;;8.40;7.60;;;28.80;1.00;;;;;;6108962;23;20152;-68
2021/06/28 05:16:06;;;;;;;9.20;8.20;;;29.40;1.00;;;;;;6108963;23;20166;-68
2021/06/28 05:18:32;;;;;;;10.07;8.10;;;29.70;1.00;;;;;;6108726;23;20246;-68
2021/06/28 05:20:58;;;;;;;7.57;6.73;;;29.80;1.00;;;;;;6109119;23;20187;-75
2021/06/28 05:23:23;;;;;;;8.60;7.90;;;30.70;1.00;;;;;;6107351;23;20529;-70
2021/06/28 05:25:49;;;;;;;7.20;6.60;;;31.00;1.00;;;;;;6121863;23;20238;-70
2021/06/28 05:28:15;;;;;;;9.73;8.73;;;31.60;1.00;;;;;;6098884;23;20163;-70
2021/06/28 05:30:41;;;;;;;8.70;7.80;;;31.30;1.00;;;;;;6108407;23;20689;-70
2021/06/28 05:33:06;;;;;;;10.27;7.97;;;31.10;1.00;;;;;;6108622;23;20395;-69
2021/06/28 05:35:32;;;;;;;9.13;7.80;;;30.50;1.00;;;;;;6108743;23;20162;-69
2021/06/28 05:37:58;;;;;;;7.83;7.13;;;29.60;1.00;;;;;;6108535;23;20167;-69
2021/06/28 05:40:23;;;;;;;8.80;8.00;;;29.30;1.00;;;;;;6121665;23;20255;-69
2021/06/28 05:42:49;;;;;;;8.83;7.93;;;29.40;1.00;;;;;;6108444;23;20562;-70
2021/06/28 05:45:14;;;;;;;10.13;9.20;;;28.40;1.00;;;;;;6107919;23;20532;-69
2021/06/28 05:47:40;;;;;;;9.17;8.00;;;27.10;99.90;;;;;;6106996;23;20170;-71
2021/06/28 05:50:08;;;;;;;8.80;7.87;;;25.80;1.00;;;;;;6107677;23;20180;-71
2021/06/28 05:52:34;;;;;;;10.17;9.17;;;25.60;1.00;;;;;;6097742;23;20467;-68
2021/06/28 05:55:00;;;;;;;10.23;9.03;;;25.70;99.90;;;;;;6107657;23;20394;-72
2021/06/28 05:57:27;;;;;;;9.40;8.37;;;26.00;1.00;;;;;;6107762;23;20740;-72
2021/06/28 05:59:54;;;;;;;8.33;7.43;;;26.90;1.00;;;;;;6121374;23;20467;-72
2021/06/28 06:02:20;;;;;;;9.27;8.33;;;28.00;28.30;;;;;;6107853;23;20383;-67
2021/06/28 06:04:46;;;;;;;9.70;8.80;;;26.60;1.00;;;;;;6108209;23;20388;-68
2021/06/28 06:07:12;;;;;;;10.10;9.07;;;26.90;1.00;;;;;;6096856;23;20406;-67
2021/06/28 06:09:38;;;;;;;9.33;8.43;;;27.10;99.90;;;;;;6107665;23;20175;-68
2021/06/28 06:12:04;;;;;;;10.10;8.90;;;28.60;23.20;;;;;;6121145;23;20176;-69
2021/06/28 06:14:30;;;;;;;9.00;7.87;;;29.40;1.00;;;;;;6107968;23;20454;-70
2021/06/28 06:16:55;;;;;;;8.27;7.37;;;29.30;1.00;;;;;;6107488;23;20400;-66
2021/06/28 06:19:21;;;;;;;8.67;7.87;;;28.80;1.00;;;;;;6107735;23;20230;-69
2021/06/28 06:21:47;;;;;;;9.00;8.10;;;29.80;1.00;;;;;;6107334;23;20156;-69
2021/06/28 06:24:12;;;;;;;7.90;7.20;;;31.00;1.00;;;;;;6098281;23;20170;-69
2021/06/28 06:26:39;;;;;;;8.13;7.40;;;32.00;1.00;;;;;;6107596;23;20457;-70
2021/06/28 06:29:04;;;;;;;8.87;7.77;;;32.70;1.00;;;;;;6098123;23;20462;-69
2021/06/28 06:31:30;;;;;;;7.87;7.17;;;33.00;1.00;;;;;;6107659;23;20423;-70
2021/06/28 06:33:56;;;;;;;10.17;9.17;;;32.70;1.00;;;;;;6107603;23;20187;-70
2021/06/28 06:36:21;;;;;;;8.30;7.50;;;33.00;1.00;;;;;;6107383;23;20159;-70
2021/06/28 06:38:47;;;;;;;7.83;7.13;;;32.20;1.00;;;;;;6107272;23;20194;-72
2021/06/28 06:41:13;;;;;;;8.87;7.97;;;31.70;1.00;;;;;;6107442;23;20151;-71
2021/06/28 06:43:39;;;;;;;8.43;7.27;;;30.20;1.00;;;;;;6098087;23;20719;-71
2021/06/28 06:46:05;;;;;;;8.70;7.57;;;28.90;1.00;;;;;;6107253;23;20567;-67
2021/06/28 06:48:30;;;;;;;8.40;7.03;;;28.40;1.00;;;;;;6107244;23;20167;-70
2021/06/28 06:50:56;;;;;;;8.30;7.57;;;29.90;1.00;;;;;;6107272;23;20256;-71
2021/06/28 06:53:22;;;;;;;8.03;7.33;;;31.60;1.00;;;;;;6107428;23;20226;-69
2021/06/28 06:55:47;;;;;;;8.43;7.63;;;32.40;1.00;;;;;;6107282;23;20442;-69
2021/06/28 06:58:13;;;;;;;9.00;7.27;;;32.70;1.00;;;;;;6097197;23;20164;-68
2021/06/28 07:00:41;;;;;;;10.43;7.43;;;34.00;1.00;;;;;;6121031;23;20163;-70
2021/06/28 07:03:07;;;;;;;7.77;7.00;;;34.90;1.00;;;;;;6107355;23;20174;-68
2021/06/28 07:05:34;;;;;;;7.20;6.60;;;34.70;1.00;;;;;;6107734;23;20434;-68
2021/06/28 07:08:00;;;;;;;7.80;7.10;;;34.80;1.00;;;;;;6107751;23;20396;-66
2021/06/28 07:10:25;;;;;;;6.97;6.37;;;34.00;1.00;;;;;;6107971;23;20481;-67
2021/06/28 07:12:51;;;;;;;8.07;6.27;;;33.40;1.00;;;;;;6101136;23;20159;-67
2021/06/28 07:15:19;;;;;;;7.70;6.40;;;33.70;1.00;;;;;;6111309;23;20152;-67
2021/06/28 07:17:45;;;;;;;7.60;6.47;;;31.50;1.00;;;;;;6110837;23;20407;-66
2021/06/28 07:20:13;;;;;;;7.33;6.63;;;30.10;1.00;;;;;;6101403;23;20473;-69
2021/06/28 07:22:39;;;;;;;8.40;7.60;;;29.20;1.00;;;;;;6111070;23;20400;-68
2021/06/28 07:25:07;;;;;;;7.57;6.87;;;29.00;1.00;;;;;;6110717;23;20387;-67
2021/06/28 07:27:33;;;;;;;8.20;6.70;;;28.30;1.00;;;;;;6111062;23;20154;-67
2021/06/28 07:29:58;;;;;;;7.33;6.63;;;28.40;1.00;;;;;;6110574;23;20703;-68
2021/06/28 07:32:24;;;;;;;7.73;7.03;;;28.70;1.00;;;;;;6110918;23;20162;-67
2021/06/28 07:34:50;;;;;;;7.50;6.80;;;28.80;1.00;;;;;;6110904;23;20166;-67
2021/06/28 07:37:15;;;;;;;8.80;7.07;;;28.50;1.00;;;;;;6110850;23;20164;-67
2021/06/28 07:39:41;;;;;;;7.63;6.77;;;29.10;1.00;;;;;;6110486;23;20209;-67
2021/06/28 07:42:07;;;;;;;7.80;7.00;;;28.30;1.00;;;;;;6110872;23;20160;-69
2021/06/28 07:44:32;;;;;;;9.50;6.90;;;27.90;1.00;;;;;;6110589;23;20159;-70
2021/06/28 07:46:58;;;;;;;8.97;8.07;;;27.80;1.00;;;;;;6124509;23;20549;-68
2021/06/28 07:49:23;;;;;;;7.70;7.00;;;27.50;99.90;;;;;;6110775;23;20155;-68
2021/06/28 07:51:49;;;;;;;8.83;8.03;;;27.40;99.90;;;;;;6110728;23;20262;-67
2021/06/28 07:54:16;;;;;;;9.07;8.17;;;27.50;99.90;;;;;;6110825;23;20224;-70
2021/06/28 07:56:42;;;;;;;8.50;7.10;;;27.80;98.30;;;;;;6110682;23;20151;-68
2021/06/28 07:59:07;;;;;;;7.70;7.00;;;28.00;89.40;;;;;;6101027;23;20387;-68
2021/06/28 08:01:33;;;;;;;8.17;7.37;;;28.00;61.80;;;;;;6110876;23;20222;-69
2021/06/28 08:03:58;;;;;;;8.47;7.67;;;27.70;87.50;;;;;;6110635;23;20578;-68
2021/06/28 08:06:24;;;;;;;8.33;7.50;;;27.80;99.30;;;;;;6123879;23;20238;-68
2021/06/28 08:08:51;;;;;;;8.93;7.30;;;28.20;68.60;;;;;;6108623;23;20170;-67
2021/06/28 08:11:19;;;;;;;8.80;7.50;;;28.30;57.30;;;;;;6073269;23;20187;-67
2021/06/28 08:13:47;;;;;;;9.13;8.20;;;27.90;1.00;;;;;;6099802;23;20930;-68
2021/06/28 08:16:14;;;;;;;7.60;6.90;;;27.30;99.90;;;;;;6099396;23;20862;-67
2021/06/28 08:18:43;;;;;;;9.00;7.60;;;26.90;99.90;;;;;;6110087;23;20383;-69
2021/06/28 08:21:09;;;;;;;8.47;7.63;;;27.10;99.90;;;;;;6110075;23;20402;-69
2021/06/28 08:23:34;;;;;;;9.07;8.27;;;27.40;99.90;;;;;;6108630;23;20458;-67
2021/06/28 08:26:00;;;;;;;10.47;7.70;;;27.30;99.90;;;;;;6109690;23;20411;-65
2021/06/28 08:28:26;;;;;;;8.30;7.40;;;27.80;99.90;;;;;;6099790;23;20222;-65
2021/06/28 08:30:51;;;;;;;7.40;6.70;;;28.10;99.90;;;;;;6109232;23;20194;-70
2021/06/28 08:33:17;;;;;;;8.50;7.60;;;27.80;99.90;;;;;;6108838;23;20160;-69
2021/06/28 08:35:43;;;;;;;8.60;7.00;;;27.80;99.90;;;;;;6108959;23;20391;-70
2021/06/28 08:38:09;;;;;;;8.17;7.37;;;28.00;99.90;;;;;;6122577;23;20235;-67
2021/06/28 08:40:37;;;;;;;8.47;7.67;;;28.00;50.80;;;;;;6099109;23;20164;-67
2021/06/28 08:43:05;;;;;;;9.47;8.30;;;28.00;99.90;;;;;;6108590;23;20423;-66
2021/06/28 08:45:35;;;;;;;8.63;7.50;;;28.10;26.40;;;;;;6108432;23;20406;-67
2021/06/28 08:48:03;;;;;;;7.63;6.90;;;28.30;26.70;;;;;;6108354;23;20644;-67
2021/06/28 08:50:29;;;;;;;8.63;7.73;;;28.00;69.90;;;;;;6108202;23;20886;-68
2021/06/28 08:52:56;;;;;;;7.53;6.93;;;28.10;99.90;;;;;;6108433;23;20407;-67
2021/06/28 08:55:22;;;;;;;8.60;7.30;;;27.90;66.10;;;;;;6098748;23;20394;-67
2021/06/28 08:57:47;;;;;;;7.50;6.70;;;28.00;99.90;;;;;;6108185;23;20419;-68
2021/06/28 09:00:15;;;;;;;7.77;7.07;;;27.70;99.90;;;;;;6108438;23;20156;-67
2021/06/28 09:02:43;;;;;;;9.23;8.37;;;27.80;78.70;;;;;;6098511;23;20525;-67
2021/06/28 09:05:10;;;;;;;7.73;7.00;;;27.80;97.90;;;;;;6108208;23;20627;-67
2021/06/28 09:07:36;;;;;;;8.20;7.00;;;28.20;99.90;;;;;;6107943;23;20419;-68
2021/06/28 09:10:03;;;;;;;7.07;6.33;;;28.30;98.90;;;;;;6107960;23;20470;-68
2021/06/28 09:12:29;;;;;;;8.17;7.27;;;28.20;43.40;;;;;;6108442;23;20402;-67
2021/06/28 09:15:00;;;;;;;7.90;7.00;;;28.30;32.60;;;;;;6108230;23;20473;-67
2021/06/28 09:17:37;;;;;;;7.47;6.70;;;28.10;75.40;;;;;;6098124;23;20622;-69
2021/06/28 09:20:18;;;;;;;7.20;6.50;;;28.30;74.70;;;;;;6107822;23;20372;-68
2021/06/28 09:22:46;;;;;;;8.20;6.30;;;27.90;1.00;;;;;;6108001;23;20450;-67
2021/06/28 09:25:35;;;;;;;7.63;6.67;;;27.70;74.70;;;;;;6107764;23;20411;-67
2021/06/28 09:28:02;;;;;;;8.20;7.50;;;27.90;45.70;;;;;;6107664;23;20930;-67
2021/06/28 09:30:28;;;;;;;6.17;5.57;;;27.80;63.20;;;;;;6121256;23;20442;-68
2021/06/28 09:33:02;;;;;;;5.70;5.20;;;27.90;1.00;;;;;;6107962;23;20439;-68
2021/06/28 09:35:31;;;;;;;7.27;6.00;;;28.20;1.00;;;;;;6107905;23;20376;-67
2021/06/28 09:38:25;;;;;;;5.87;5.37;;;28.40;1.00;;;;;;6107798;23;20391;-67
2021/06/28 09:40:51;;;;;;;5.77;5.27;;;28.70;1.00;;;;;;6108387;23;20394;-69
2021/06/28 09:43:23;;;;;;;5.70;5.20;;;28.80;1.00;;;;;;6108167;23;20478;-66
2021/06/28 09:45:54;;;;;;;4.70;4.30;;;28.60;1.00;;;;;;6108185;23;20159;-68
2021/06/28 09:48:25;;;;;;;5.10;4.60;;;28.60;1.00;;;;;;6107502;23;20380;-67
2021/06/28 09:51:25;;;;;;;4.80;4.40;;;28.50;1.00;;;;;;6107908;23;20885;-67
2021/06/28 09:54:15;;;;;;;5.80;4.77;;;28.50;1.00;;;;;;6108315;23;20707;-67
2021/06/28 09:56:47;;;;;;;5.27;4.77;;;28.60;1.00;;;;;;6121122;23;20400;-68
2021/06/28 09:59:22;;;;;;;7.03;4.67;;;28.50;1.00;;;;;;6108016;23;20866;-65
2021/06/28 10:01:50;;;;;;;4.40;4.00;;;28.50;1.00;;;;;;6107620;23;20921;-65
2021/06/28 10:04:43;;;;;;;5.30;4.80;;;28.40;1.00;;;;;;6098619;23;20419;-66
2021/06/28 10:07:42;;;;;;;4.80;4.30;;;28.70;1.00;;;;;;6108051;23;20462;-67
2021/06/28 10:10:09;;;;;;;5.50;4.50;;;28.90;1.00;;;;;;6075726;23;20486;-69
2021/06/28 10:12:36;;;;;;;5.30;4.90;;;28.60;1.00;;;;;;6098264;23;20415;-68
2021/06/28 10:15:03;;;;;;;5.20;4.40;;;28.30;1.00;;;;;;6107395;23;20403;-69
2021/06/28 10:17:30;;;;;;;4.70;4.30;;;28.20;1.00;;;;;;6097294;23;20423;-68
2021/06/28 10:19:56;;;;;;;5.50;4.60;;;28.40;1.00;;;;;;6107713;23;20392;-68
2021/06/28 10:22:21;;;;;;;4.37;3.97;;;28.20;1.00;;;;;;6107378;23;20390;-69
2021/06/28 10:24:47;;;;;;;3.67;3.37;;;28.20;1.00;;;;;;6107659;23;20664;-72
2021/06/28 10:27:13;;;;;;;4.50;4.10;;;28.40;1.00;;;;;;6107697;23;20452;-69
2021/06/28 10:29:39;;;;;;;4.30;3.90;;;28.70;1.00;;;;;;6107665;23;20163;-69
2021/06/28 10:32:07;;;;;;;5.10;4.70;;;28.80;1.00;;;;;;6107663;23;20599;-69
2021/06/28 10:34:33;;;;;;;4.90;4.50;;;28.90;1.00;;;;;;6107171;23;20411;-68
2021/06/28 10:37:02;;;;;;;4.33;3.93;;;29.00;1.00;;;;;;6120559;23;20407;-68
2021/06/28 10:39:30;;;;;;;4.33;3.93;;;28.80;1.00;;;;;;6097965;23;20699;-69
2021/06/28 10:41:58;;;;;;;4.00;3.70;;;29.00;1.00;;;;;;6120552;23;20440;-65
2021/06/28 10:44:45;;;;;;;4.20;3.90;;;29.40;1.00;;;;;;6097689;23;20380;-71
2021/06/28 10:47:11;;;;;;;4.10;3.80;;;29.40;1.00;;;;;;6106128;23;20746;-68
2021/06/28 10:49:45;;;;;;;6.83;4.00;;;29.40;1.00;;;;;;6107253;23;20391;-64
2021/06/28 10:52:14;;;;;;;4.47;3.53;;;29.60;1.00;;;;;;6107168;23;20423;-67
2021/06/28 10:54:39;;;;;;;4.13;3.83;;;29.50;1.00;;;;;;6106595;23;20428;-67
2021/06/28 10:57:10;;;;;;;4.90;4.20;;;29.50;1.00;;;;;;6097684;23;20696;-68
2021/06/28 10:59:44;;;;;;;4.73;4.23;;;29.60;1.00;;;;;;6106930;23;20449;-70
2021/06/28 11:02:11;;;;;;;5.03;3.80;;;29.50;1.00;;;;;;6097725;23;20462;-70
2021/06/28 11:04:38;;;;;;;4.67;4.27;;;29.40;1.00;;;;;;6097686;23;20387;-72
2021/06/28 11:07:06;;;;;;;3.90;3.60;;;29.50;1.00;;;;;;6107060;23;20388;-70
2021/06/28 11:09:38;;;;;;;4.77;4.37;;;29.20;1.00;;;;;;6107188;23;20391;-71
2021/06/28 11:12:25;;;;;;;5.00;4.60;;;29.10;1.00;;;;;;6107508;23;20479;-70
2021/06/28 11:15:06;;;;;;;4.50;4.10;;;29.50;1.00;;;;;;6120690;23;20705;-68
2021/06/28 11:17:46;;;;;;;5.57;4.40;;;29.90;1.00;;;;;;6107209;23;20438;-71
2021/06/28 11:20:28;;;;;;;4.53;4.20;;;29.90;1.00;;;;;;6107645;23;20371;-71
2021/06/28 11:23:16;;;;;;;4.40;4.00;;;30.10;1.00;;;;;;6107835;23;20367;-70
2021/06/28 11:25:47;;;;;;;4.10;3.80;;;30.50;1.00;;;;;;6120634;23;20491;-67
2021/06/28 11:28:15;;;;;;;4.10;3.70;;;30.30;1.00;;;;;;6096015;23;20450;-70
2021/06/28 11:30:51;;;;;;;4.07;3.77;;;30.70;1.00;;;;;;6107247;23;20450;-69
2021/06/28 11:33:30;;;;;;;4.00;3.70;;;30.70;1.00;;;;;;6106714;23;20391;-73
2021/06/28 11:35:55;;;;;;;5.23;3.83;;;30.90;1.00;;;;;;6121659;23;20878;-72
2021/06/28 11:38:27;;;;;;;4.13;3.83;;;30.60;1.00;;;;;;6120340;23;20423;-71
2021/06/28 11:41:13;;;;;;;3.80;3.50;;;30.70;1.00;;;;;;6107316;23;20219;-68
2021/06/28 11:43:38;;;;;;;4.20;3.80;;;30.50;1.00;;;;;;6120588;23;20395;-71
2021/06/28 11:46:06;;;;;;;4.00;3.63;;;30.30;1.00;;;;;;6107337;23;20467;-71
2021/06/28 11:48:35;;;;;;;4.00;3.70;;;30.60;1.00;;;;;;6107000;23;20515;-69
2021/06/28 11:51:20;;;;;;;4.20;3.90;;;30.30;1.00;;;;;;6107058;23;20434;-69
2021/06/28 11:53:56;;;;;;;4.37;3.97;;;30.20;1.00;;;;;;6107260;23;20391;-70
2021/06/28 11:56:46;;;;;;;4.90;4.40;;;30.40;1.00;;;;;;6107020;23;20394;-69
2021/06/28 11:59:23;;;;;;;4.43;4.00;;;30.40;1.00;;;;;;6098465;23;20474;-70
2021/06/28 12:02:00;;;;;;;3.70;3.40;;;30.40;1.00;;;;;;6122539;23;20387;-68
2021/06/28 12:04:28;;;;;;;5.03;4.63;;;30.00;1.00;;;;;;6108932;23;20379;-70
2021/06/28 12:06:55;;;;;;;3.73;3.43;;;30.10;1.00;;;;;;6122329;23;20395;-70
2021/06/28 12:09:23;;;;;;;3.80;3.50;;;30.30;1.00;;;;;;6122105;23;20778;-69
2021/06/28 12:12:08;;;;;;;3.80;3.50;;;30.40;1.00;;;;;;6097688;23;20427;-68
2021/06/28 12:14:49;;;;;;;4.20;3.90;;;30.10;1.00;;;;;;6099075;23;20398;-69
2021/06/28 12:17:27;;;;;;;3.80;3.50;;;30.20;1.00;;;;;;6121825;23;20733;-70
2021/06/28 12:19:57;;;;;;;4.60;3.97;;;30.30;1.00;;;;;;6099392;23;20382;-67
2021/06/28 12:22:25;;;;;;;3.80;3.50;;;30.20;1.00;;;;;;6109096;23;20379;-66
2021/06/28 12:25:03;;;;;;;4.30;3.40;;;30.20;1.00;;;;;;6108756;23;20391;-68
2021/06/28 12:27:31;;;;;;;4.60;4.20;;;30.10;1.00;;;;;;6122133;23;20478;-65
2021/06/28 12:29:57;;;;;;;4.57;4.13;;;30.30;1.00;;;;;;6108337;23;20853;-67
2021/06/28 12:32:31;;;;;;;4.00;3.70;;;30.70;1.00;;;;;;6098963;23;20770;-67
2021/06/28 12:34:58;;;;;;;5.67;4.17;;;30.50;1.00;;;;;;6108299;23;20423;-68
2021/06/28 12:37:28;;;;;;;4.67;4.27;;;30.50;1.00;;;;;;6108100;23;20394;-67
2021/06/28 12:40:09;;;;;;;5.03;4.20;;;30.40;1.00;;;;;;6098694;23;20450;-66
2021/06/28 12:42:43;;;;;;;4.07;3.77;;;30.40;1.00;;;;;;6108123;23;20441;-67
2021/06/28 12:45:10;;;;;;;3.70;3.40;;;30.70;1.00;;;;;;6098629;23;20376;-67
2021/06/28 12:47:36;;;;;;;4.07;3.77;;;30.50;1.00;;;;;;6098216;23;20462;-65
2021/06/28 12:50:03;;;;;;;4.33;4.03;;;30.80;1.00;;;;;;6108151;23;20391;-65
2021/06/28 12:52:33;;;;;;;3.47;3.27;;;30.90;1.00;;;;;;6108364;23;20159;-66